sensor_id;sensor_type;location;lat;lon;timestamp;P1;durP1;ratioP1;P2;durP2;ratioP2
40198;SDS011;25906;43.536;26.068;2023-03-26T00:01:23;6.90;;;3.22;;
40198;SDS011;25906;43.536;26.068;2023-03-26T00:04:10;5.68;;;3.42;;
40198;SDS011;25906;43.536;26.068;2023-03-26T00:06:56;6.25;;;3.55;;
40198;SDS011;25906;43.536;26.068;2023-03-26T00:09:41;4.63;;;3.83;;
40198;SDS011;25906;43.536;26.068;2023-03-26T00:12:28;6.32;;;3.90;;
40198;SDS011;25906;43.536;26.068;2023-03-26T00:15:13;5.68;;;3.92;;
40198;SDS011;25906;43.536;26.068;2023-03-26T00:17:59;5.93;;;3.70;;
40198;SDS011;25906;43.536;26.068;2023-03-26T00:20:44;4.57;;;3.08;;
40198;SDS011;25906;43.536;26.068;2023-03-26T00:23:30;3.95;;;3.13;;
40198;SDS011;25906;43.536;26.068;2023-03-26T00:26:17;4.95;;;2.95;;
40198;SDS011;25906;43.536;26.068;2023-03-26T00:29:03;6.97;;;3.67;;
40198;SDS011;25906;43.536;26.068;2023-03-26T00:31:49;5.57;;;3.33;;
40198;SDS011;25906;43.536;26.068;2023-03-26T00:34:34;3.85;;;2.65;;
40198;SDS011;25906;43.536;26.068;2023-03-26T00:37:20;4.97;;;2.65;;
40198;SDS011;25906;43.536;26.068;2023-03-26T00:40:10;6.57;;;2.95;;
40198;SDS011;25906;43.536;26.068;2023-03-26T00:45:41;5.13;;;2.70;;
40198;SDS011;25906;43.536;26.068;2023-03-26T00:48:27;3.88;;;2.80;;
40198;SDS011;25906;43.536;26.068;2023-03-26T00:51:18;3.97;;;2.58;;
40198;SDS011;25906;43.536;26.068;2023-03-26T00:54:05;8.32;;;3.33;;
40198;SDS011;25906;43.536;26.068;2023-03-26T00:56:52;6.43;;;3.30;;
40198;SDS011;25906;43.536;26.068;2023-03-26T00:59:39;3.83;;;3.25;;
40198;SDS011;25906;43.536;26.068;2023-03-26T01:02:26;5.57;;;2.72;;
40198;SDS011;25906;43.536;26.068;2023-03-26T01:11:11;4.25;;;3.00;;
40198;SDS011;25906;43.536;26.068;2023-03-26T01:17:15;7.15;;;3.60;;
40198;SDS011;25906;43.536;26.068;2023-03-26T01:20:16;6.65;;;3.80;;
40198;SDS011;25906;43.536;26.068;2023-03-26T01:23:11;6.13;;;4.00;;
40198;SDS011;25906;43.536;26.068;2023-03-26T01:26:05;5.95;;;3.28;;
40198;SDS011;25906;43.536;26.068;2023-03-26T01:29:01;5.55;;;3.30;;
40198;SDS011;25906;43.536;26.068;2023-03-26T01:41:11;3.70;;;3.15;;
40198;SDS011;25906;43.536;26.068;2023-03-26T01:44:03;6.97;;;4.20;;
40198;SDS011;25906;43.536;26.068;2023-03-26T01:46:55;5.35;;;3.70;;
40198;SDS011;25906;43.536;26.068;2023-03-26T01:49:40;5.28;;;3.60;;
40198;SDS011;25906;43.536;26.068;2023-03-26T01:52:26;4.28;;;3.65;;
40198;SDS011;25906;43.536;26.068;2023-03-26T01:55:11;3.75;;;3.30;;
40198;SDS011;25906;43.536;26.068;2023-03-26T01:58:05;4.32;;;3.75;;
40198;SDS011;25906;43.536;26.068;2023-03-26T02:01:08;7.60;;;4.22;;
40198;SDS011;25906;43.536;26.068;2023-03-26T02:10:12;6.03;;;4.20;;
40198;SDS011;25906;43.536;26.068;2023-03-26T02:13:01;4.90;;;4.32;;
40198;SDS011;25906;43.536;26.068;2023-03-26T02:15:57;7.30;;;4.68;;
40198;SDS011;25906;43.536;26.068;2023-03-26T02:18:44;5.47;;;4.47;;
40198;SDS011;25906;43.536;26.068;2023-03-26T02:21:35;8.10;;;5.05;;
40198;SDS011;25906;43.536;26.068;2023-03-26T02:24:21;5.72;;;4.20;;
40198;SDS011;25906;43.536;26.068;2023-03-26T02:27:07;5.78;;;4.90;;
40198;SDS011;25906;43.536;26.068;2023-03-26T02:29:53;5.38;;;4.65;;
40198;SDS011;25906;43.536;26.068;2023-03-26T02:32:38;5.38;;;4.35;;
40198;SDS011;25906;43.536;26.068;2023-03-26T02:35:24;4.95;;;4.22;;
40198;SDS011;25906;43.536;26.068;2023-03-26T02:38:09;5.30;;;4.40;;
40198;SDS011;25906;43.536;26.068;2023-03-26T02:40:58;5.45;;;4.15;;
40198;SDS011;25906;43.536;26.068;2023-03-26T02:43:44;4.82;;;4.05;;
40198;SDS011;25906;43.536;26.068;2023-03-26T02:46:31;4.45;;;3.70;;
40198;SDS011;25906;43.536;26.068;2023-03-26T02:49:17;6.70;;;4.38;;
40198;SDS011;25906;43.536;26.068;2023-03-26T02:52:02;8.50;;;4.50;;
40198;SDS011;25906;43.536;26.068;2023-03-26T02:54:50;5.07;;;4.40;;
40198;SDS011;25906;43.536;26.068;2023-03-26T02:57:35;6.15;;;4.38;;
40198;SDS011;25906;43.536;26.068;2023-03-26T03:00:21;4.97;;;4.22;;
40198;SDS011;25906;43.536;26.068;2023-03-26T03:03:06;6.63;;;4.90;;
40198;SDS011;25906;43.536;26.068;2023-03-26T03:05:53;6.45;;;4.22;;
40198;SDS011;25906;43.536;26.068;2023-03-26T03:08:42;4.70;;;4.20;;
40198;SDS011;25906;43.536;26.068;2023-03-26T03:11:30;5.18;;;3.92;;
40198;SDS011;25906;43.536;26.068;2023-03-26T03:14:15;4.40;;;3.92;;
40198;SDS011;25906;43.536;26.068;2023-03-26T03:17:00;6.10;;;3.83;;
40198;SDS011;25906;43.536;26.068;2023-03-26T03:19:46;4.97;;;3.90;;
40198;SDS011;25906;43.536;26.068;2023-03-26T03:22:31;6.32;;;3.72;;
40198;SDS011;25906;43.536;26.068;2023-03-26T03:25:17;3.95;;;3.55;;
40198;SDS011;25906;43.536;26.068;2023-03-26T03:28:06;4.25;;;3.78;;
40198;SDS011;25906;43.536;26.068;2023-03-26T03:30:52;4.53;;;3.65;;
40198;SDS011;25906;43.536;26.068;2023-03-26T03:33:38;4.15;;;3.75;;
40198;SDS011;25906;43.536;26.068;2023-03-26T03:36:25;4.78;;;3.88;;
40198;SDS011;25906;43.536;26.068;2023-03-26T03:39:14;5.65;;;3.92;;
40198;SDS011;25906;43.536;26.068;2023-03-26T03:41:59;7.90;;;4.85;;
40198;SDS011;25906;43.536;26.068;2023-03-26T03:44:45;7.22;;;5.68;;
40198;SDS011;25906;43.536;26.068;2023-03-26T03:47:30;9.90;;;6.72;;
40198;SDS011;25906;43.536;26.068;2023-03-26T03:50:16;15.60;;;10.73;;
40198;SDS011;25906;43.536;26.068;2023-03-26T03:53:02;8.98;;;6.22;;
40198;SDS011;25906;43.536;26.068;2023-03-26T03:55:49;7.88;;;5.25;;
40198;SDS011;25906;43.536;26.068;2023-03-26T03:58:37;5.45;;;4.75;;
40198;SDS011;25906;43.536;26.068;2023-03-26T04:01:23;5.70;;;4.43;;
40198;SDS011;25906;43.536;26.068;2023-03-26T04:04:08;7.40;;;4.47;;
40198;SDS011;25906;43.536;26.068;2023-03-26T04:06:54;5.55;;;3.63;;
40198;SDS011;25906;43.536;26.068;2023-03-26T04:09:39;4.82;;;3.65;;
40198;SDS011;25906;43.536;26.068;2023-03-26T04:12:26;6.35;;;3.63;;
40198;SDS011;25906;43.536;26.068;2023-03-26T04:15:12;3.63;;;2.67;;
40198;SDS011;25906;43.536;26.068;2023-03-26T04:17:57;3.67;;;2.90;;
40198;SDS011;25906;43.536;26.068;2023-03-26T04:20:43;5.75;;;2.63;;
40198;SDS011;25906;43.536;26.068;2023-03-26T04:23:30;4.50;;;2.65;;
40198;SDS011;25906;43.536;26.068;2023-03-26T04:26:16;4.13;;;2.63;;
40198;SDS011;25906;43.536;26.068;2023-03-26T04:29:04;2.55;;;1.90;;
40198;SDS011;25906;43.536;26.068;2023-03-26T04:31:50;4.15;;;2.47;;
40198;SDS011;25906;43.536;26.068;2023-03-26T04:34:50;4.70;;;2.50;;
40198;SDS011;25906;43.536;26.068;2023-03-26T04:37:37;3.00;;;2.35;;
40198;SDS011;25906;43.536;26.068;2023-03-26T04:40:24;4.78;;;2.80;;
40198;SDS011;25906;43.536;26.068;2023-03-26T04:43:13;4.20;;;2.90;;
40198;SDS011;25906;43.536;26.068;2023-03-26T04:46:02;4.00;;;2.30;;
40198;SDS011;25906;43.536;26.068;2023-03-26T04:48:49;3.50;;;2.60;;
40198;SDS011;25906;43.536;26.068;2023-03-26T04:51:36;6.15;;;2.60;;
40198;SDS011;25906;43.536;26.068;2023-03-26T04:54:22;4.10;;;2.58;;
40198;SDS011;25906;43.536;26.068;2023-03-26T04:57:17;4.13;;;2.67;;
40198;SDS011;25906;43.536;26.068;2023-03-26T05:00:07;6.47;;;3.50;;
40198;SDS011;25906;43.536;26.068;2023-03-26T05:02:59;4.57;;;3.20;;
40198;SDS011;25906;43.536;26.068;2023-03-26T05:05:45;9.05;;;4.65;;
40198;SDS011;25906;43.536;26.068;2023-03-26T05:08:30;7.95;;;3.72;;
40198;SDS011;25906;43.536;26.068;2023-03-26T05:11:16;6.05;;;3.35;;
40198;SDS011;25906;43.536;26.068;2023-03-26T05:14:01;5.47;;;3.30;;
40198;SDS011;25906;43.536;26.068;2023-03-26T05:16:47;4.07;;;2.70;;
40198;SDS011;25906;43.536;26.068;2023-03-26T05:19:34;4.15;;;3.00;;
40198;SDS011;25906;43.536;26.068;2023-03-26T05:22:19;7.43;;;3.85;;
40198;SDS011;25906;43.536;26.068;2023-03-26T05:25:05;7.07;;;3.45;;
40198;SDS011;25906;43.536;26.068;2023-03-26T05:27:51;6.47;;;4.38;;
40198;SDS011;25906;43.536;26.068;2023-03-26T05:30:36;6.65;;;4.40;;
40198;SDS011;25906;43.536;26.068;2023-03-26T05:33:22;5.85;;;3.83;;
40198;SDS011;25906;43.536;26.068;2023-03-26T05:36:09;9.63;;;4.63;;
40198;SDS011;25906;43.536;26.068;2023-03-26T05:39:03;6.47;;;4.22;;
40198;SDS011;25906;43.536;26.068;2023-03-26T05:41:48;8.68;;;4.72;;
40198;SDS011;25906;43.536;26.068;2023-03-26T05:44:34;8.63;;;4.60;;
40198;SDS011;25906;43.536;26.068;2023-03-26T05:47:19;9.00;;;5.03;;
40198;SDS011;25906;43.536;26.068;2023-03-26T05:50:05;6.55;;;5.18;;
40198;SDS011;25906;43.536;26.068;2023-03-26T05:52:51;7.55;;;5.85;;
40198;SDS011;25906;43.536;26.068;2023-03-26T05:55:36;13.82;;;7.85;;
40198;SDS011;25906;43.536;26.068;2023-03-26T05:58:26;23.23;;;10.35;;
40198;SDS011;25906;43.536;26.068;2023-03-26T06:01:13;11.07;;;6.25;;
40198;SDS011;25906;43.536;26.068;2023-03-26T06:04:02;30.92;;;14.40;;
40198;SDS011;25906;43.536;26.068;2023-03-26T06:06:48;25.65;;;10.90;;
40198;SDS011;25906;43.536;26.068;2023-03-26T06:09:33;12.05;;;7.53;;
40198;SDS011;25906;43.536;26.068;2023-03-26T06:12:19;9.10;;;5.57;;
40198;SDS011;25906;43.536;26.068;2023-03-26T06:15:04;10.63;;;6.50;;
40198;SDS011;25906;43.536;26.068;2023-03-26T06:17:50;7.05;;;5.70;;
40198;SDS011;25906;43.536;26.068;2023-03-26T06:20:36;13.32;;;6.00;;
40198;SDS011;25906;43.536;26.068;2023-03-26T06:23:21;7.10;;;5.15;;
40198;SDS011;25906;43.536;26.068;2023-03-26T06:26:07;7.32;;;5.07;;
40198;SDS011;25906;43.536;26.068;2023-03-26T06:28:52;6.93;;;4.90;;
40198;SDS011;25906;43.536;26.068;2023-03-26T06:31:38;8.63;;;6.00;;
40198;SDS011;25906;43.536;26.068;2023-03-26T06:34:24;8.05;;;5.65;;
40198;SDS011;25906;43.536;26.068;2023-03-26T06:37:10;6.95;;;4.60;;
40198;SDS011;25906;43.536;26.068;2023-03-26T06:39:55;7.60;;;4.45;;
40198;SDS011;25906;43.536;26.068;2023-03-26T06:42:41;6.30;;;4.63;;
40198;SDS011;25906;43.536;26.068;2023-03-26T06:45:27;7.15;;;4.93;;
40198;SDS011;25906;43.536;26.068;2023-03-26T06:48:13;6.32;;;4.15;;
40198;SDS011;25906;43.536;26.068;2023-03-26T06:50:58;7.05;;;4.60;;
40198;SDS011;25906;43.536;26.068;2023-03-26T06:53:44;8.52;;;4.93;;
40198;SDS011;25906;43.536;26.068;2023-03-26T06:56:29;7.60;;;3.92;;
40198;SDS011;25906;43.536;26.068;2023-03-26T06:59:14;7.32;;;4.07;;
40198;SDS011;25906;43.536;26.068;2023-03-26T07:02:00;5.40;;;3.65;;
40198;SDS011;25906;43.536;26.068;2023-03-26T07:04:45;4.90;;;3.90;;
40198;SDS011;25906;43.536;26.068;2023-03-26T07:07:31;6.97;;;4.25;;
40198;SDS011;25906;43.536;26.068;2023-03-26T07:10:16;5.63;;;4.00;;
40198;SDS011;25906;43.536;26.068;2023-03-26T07:13:02;9.77;;;3.95;;
40198;SDS011;25906;43.536;26.068;2023-03-26T07:15:47;6.13;;;4.03;;
40198;SDS011;25906;43.536;26.068;2023-03-26T07:18:33;8.27;;;3.70;;
40198;SDS011;25906;43.536;26.068;2023-03-26T07:21:18;4.32;;;3.22;;
40198;SDS011;25906;43.536;26.068;2023-03-26T07:24:07;6.78;;;3.45;;
40198;SDS011;25906;43.536;26.068;2023-03-26T07:26:58;9.23;;;4.18;;
40198;SDS011;25906;43.536;26.068;2023-03-26T07:29:51;8.03;;;4.30;;
40198;SDS011;25906;43.536;26.068;2023-03-26T07:39:26;4.38;;;3.30;;
40198;SDS011;25906;43.536;26.068;2023-03-26T07:48:24;6.28;;;3.30;;
40198;SDS011;25906;43.536;26.068;2023-03-26T07:51:14;5.50;;;2.67;;
40198;SDS011;25906;43.536;26.068;2023-03-26T07:53:59;4.72;;;2.70;;
40198;SDS011;25906;43.536;26.068;2023-03-26T07:56:52;3.88;;;2.22;;
40198;SDS011;25906;43.536;26.068;2023-03-26T08:18:25;3.95;;;2.05;;
40198;SDS011;25906;43.536;26.068;2023-03-26T08:21:20;23.83;;;9.32;;
40198;SDS011;25906;43.536;26.068;2023-03-26T08:24:12;10.48;;;4.65;;
40198;SDS011;25906;43.536;26.068;2023-03-26T08:32:54;3.45;;;2.75;;
40198;SDS011;25906;43.536;26.068;2023-03-26T08:35:43;2.85;;;1.83;;
40198;SDS011;25906;43.536;26.068;2023-03-26T08:38:29;3.22;;;2.10;;
40198;SDS011;25906;43.536;26.068;2023-03-26T08:47:59;1.85;;;1.45;;
40198;SDS011;25906;43.536;26.068;2023-03-26T08:51:10;2.55;;;2.13;;
40198;SDS011;25906;43.536;26.068;2023-03-26T08:57:36;4.55;;;1.80;;
40198;SDS011;25906;43.536;26.068;2023-03-26T09:00:52;4.75;;;1.75;;
40198;SDS011;25906;43.536;26.068;2023-03-26T09:06:40;8.57;;;2.20;;
40198;SDS011;25906;43.536;26.068;2023-03-26T09:16:21;3.20;;;1.60;;
40198;SDS011;25906;43.536;26.068;2023-03-26T09:35:43;5.15;;;1.15;;
40198;SDS011;25906;43.536;26.068;2023-03-26T09:56:30;3.30;;;1.30;;
40198;SDS011;25906;43.536;26.068;2023-03-26T10:00:07;1.33;;;1.08;;
40198;SDS011;25906;43.536;26.068;2023-03-26T10:12:17;9.57;;;1.60;;
40198;SDS011;25906;43.536;26.068;2023-03-26T10:15:30;2.05;;;1.30;;
40198;SDS011;25906;43.536;26.068;2023-03-26T10:18:24;1.35;;;1.10;;
40198;SDS011;25906;43.536;26.068;2023-03-26T10:25:09;0.93;;;0.80;;
40198;SDS011;25906;43.536;26.068;2023-03-26T10:27:49;1.02;;;0.85;;
40198;SDS011;25906;43.536;26.068;2023-03-26T10:30:46;1.63;;;0.60;;
40198;SDS011;25906;43.536;26.068;2023-03-26T10:40:19;3.58;;;1.05;;
40198;SDS011;25906;43.536;26.068;2023-03-26T10:52:37;1.10;;;1.00;;
40198;SDS011;25906;43.536;26.068;2023-03-26T10:55:33;1.25;;;0.70;;
40198;SDS011;25906;43.536;26.068;2023-03-26T10:58:25;2.60;;;0.80;;
40198;SDS011;25906;43.536;26.068;2023-03-26T11:01:14;0.88;;;0.70;;
40198;SDS011;25906;43.536;26.068;2023-03-26T11:08:03;1.35;;;0.80;;
40198;SDS011;25906;43.536;26.068;2023-03-26T11:11:04;6.82;;;0.90;;
40198;SDS011;25906;43.536;26.068;2023-03-26T11:16:59;2.80;;;0.90;;
40198;SDS011;25906;43.536;26.068;2023-03-26T11:20:16;1.73;;;0.88;;
40198;SDS011;25906;43.536;26.068;2023-03-26T11:26:08;1.40;;;0.73;;
40198;SDS011;25906;43.536;26.068;2023-03-26T11:29:22;1.65;;;1.33;;
40198;SDS011;25906;43.536;26.068;2023-03-26T11:32:13;2.15;;;0.80;;
40198;SDS011;25906;43.536;26.068;2023-03-26T11:41:37;2.35;;;0.70;;
40198;SDS011;25906;43.536;26.068;2023-03-26T11:44:23;2.17;;;1.20;;
40198;SDS011;25906;43.536;26.068;2023-03-26T11:47:13;3.13;;;0.82;;
40198;SDS011;25906;43.536;26.068;2023-03-26T11:50:03;4.50;;;0.70;;
40198;SDS011;25906;43.536;26.068;2023-03-26T11:52:51;1.92;;;0.70;;
40198;SDS011;25906;43.536;26.068;2023-03-26T11:55:43;0.98;;;0.70;;
40198;SDS011;25906;43.536;26.068;2023-03-26T12:01:39;1.20;;;0.90;;
40198;SDS011;25906;43.536;26.068;2023-03-26T12:04:36;2.58;;;0.80;;
40198;SDS011;25906;43.536;26.068;2023-03-26T12:07:34;0.85;;;0.70;;
40198;SDS011;25906;43.536;26.068;2023-03-26T12:16:22;0.60;;;0.60;;
40198;SDS011;25906;43.536;26.068;2023-03-26T12:19:18;0.68;;;0.60;;
40198;SDS011;25906;43.536;26.068;2023-03-26T12:22:05;0.40;;;0.40;;
40198;SDS011;25906;43.536;26.068;2023-03-26T12:25:20;1.73;;;0.50;;
40198;SDS011;25906;43.536;26.068;2023-03-26T12:28:16;2.42;;;0.70;;
40198;SDS011;25906;43.536;26.068;2023-03-26T12:31:03;0.80;;;0.80;;
40198;SDS011;25906;43.536;26.068;2023-03-26T12:34:04;0.70;;;0.70;;
40198;SDS011;25906;43.536;26.068;2023-03-26T12:36:52;1.98;;;1.00;;
40198;SDS011;25906;43.536;26.068;2023-03-26T12:39:40;1.33;;;1.00;;
40198;SDS011;25906;43.536;26.068;2023-03-26T12:42:28;1.42;;;0.90;;
40198;SDS011;25906;43.536;26.068;2023-03-26T12:45:15;0.90;;;0.90;;
40198;SDS011;25906;43.536;26.068;2023-03-26T12:48:05;1.95;;;1.73;;
40198;SDS011;25906;43.536;26.068;2023-03-26T12:51:00;4.10;;;1.10;;
40198;SDS011;25906;43.536;26.068;2023-03-26T12:53:55;1.40;;;1.05;;
40198;SDS011;25906;43.536;26.068;2023-03-26T13:03:01;4.95;;;1.02;;
40198;SDS011;25906;43.536;26.068;2023-03-26T13:08:59;2.42;;;0.80;;
40198;SDS011;25906;43.536;26.068;2023-03-26T13:12:15;5.55;;;1.33;;
40198;SDS011;25906;43.536;26.068;2023-03-26T13:15:16;4.10;;;0.65;;
40198;SDS011;25906;43.536;26.068;2023-03-26T13:35:39;7.35;;;1.63;;
40198;SDS011;25906;43.536;26.068;2023-03-26T13:47:52;1.48;;;1.00;;
40198;SDS011;25906;43.536;26.068;2023-03-26T13:50:41;3.95;;;0.85;;
40198;SDS011;25906;43.536;26.068;2023-03-26T13:53:36;2.58;;;0.90;;
40198;SDS011;25906;43.536;26.068;2023-03-26T13:56:37;5.05;;;1.00;;
40198;SDS011;25906;43.536;26.068;2023-03-26T13:59:29;3.58;;;1.10;;
40198;SDS011;25906;43.536;26.068;2023-03-26T14:02:55;2.83;;;1.52;;
40198;SDS011;25906;43.536;26.068;2023-03-26T14:05:38;2.42;;;1.60;;
40198;SDS011;25906;43.536;26.068;2023-03-26T14:08:32;1.77;;;1.08;;
40198;SDS011;25906;43.536;26.068;2023-03-26T14:11:41;8.35;;;1.67;;
40198;SDS011;25906;43.536;26.068;2023-03-26T14:21:04;7.43;;;1.20;;
40198;SDS011;25906;43.536;26.068;2023-03-26T14:27:08;1.42;;;1.00;;
40198;SDS011;25906;43.536;26.068;2023-03-26T14:54:30;2.20;;;0.88;;
40198;SDS011;25906;43.536;26.068;2023-03-26T15:22:52;1.08;;;0.93;;
40198;SDS011;25906;43.536;26.068;2023-03-26T15:26:05;3.70;;;0.80;;
40198;SDS011;25906;43.536;26.068;2023-03-26T15:29:23;3.65;;;0.95;;
40198;SDS011;25906;43.536;26.068;2023-03-26T15:44:12;2.30;;;0.70;;
40198;SDS011;25906;43.536;26.068;2023-03-26T15:56:19;0.80;;;0.70;;
40198;SDS011;25906;43.536;26.068;2023-03-26T15:59:25;2.75;;;0.77;;
40198;SDS011;25906;43.536;26.068;2023-03-26T16:14:44;1.08;;;0.70;;
40198;SDS011;25906;43.536;26.068;2023-03-26T16:33:14;0.85;;;0.65;;
40198;SDS011;25906;43.536;26.068;2023-03-26T16:36:03;1.33;;;0.85;;
40198;SDS011;25906;43.536;26.068;2023-03-26T16:45:13;1.23;;;0.68;;
40198;SDS011;25906;43.536;26.068;2023-03-26T16:48:14;3.92;;;1.00;;
40198;SDS011;25906;43.536;26.068;2023-03-26T16:57:24;1.52;;;0.90;;
40198;SDS011;25906;43.536;26.068;2023-03-26T17:03:25;2.40;;;1.88;;
40198;SDS011;25906;43.536;26.068;2023-03-26T17:13:06;12.45;;;6.28;;
40198;SDS011;25906;43.536;26.068;2023-03-26T17:18:34;8.63;;;5.32;;
40198;SDS011;25906;43.536;26.068;2023-03-26T17:21:55;40.40;;;14.20;;
40198;SDS011;25906;43.536;26.068;2023-03-26T17:24:48;15.48;;;5.70;;
40198;SDS011;25906;43.536;26.068;2023-03-26T17:28:06;4.53;;;2.33;;
40198;SDS011;25906;43.536;26.068;2023-03-26T17:31:02;2.30;;;1.30;;
40198;SDS011;25906;43.536;26.068;2023-03-26T17:37:38;3.63;;;1.00;;
40198;SDS011;25906;43.536;26.068;2023-03-26T17:43:37;2.30;;;1.45;;
40198;SDS011;25906;43.536;26.068;2023-03-26T17:46:34;1.98;;;1.77;;
40198;SDS011;25906;43.536;26.068;2023-03-26T17:49:29;4.00;;;2.20;;
40198;SDS011;25906;43.536;26.068;2023-03-26T17:52:21;5.45;;;2.15;;
40198;SDS011;25906;43.536;26.068;2023-03-26T17:55:11;2.50;;;1.85;;
40198;SDS011;25906;43.536;26.068;2023-03-26T17:58:03;7.97;;;5.32;;
40198;SDS011;25906;43.536;26.068;2023-03-26T18:00:51;30.23;;;16.10;;
40198;SDS011;25906;43.536;26.068;2023-03-26T18:03:51;27.83;;;15.32;;
40198;SDS011;25906;43.536;26.068;2023-03-26T18:19:30;171.32;;;70.57;;
40198;SDS011;25906;43.536;26.068;2023-03-26T18:22:31;183.07;;;71.70;;
40198;SDS011;25906;43.536;26.068;2023-03-26T18:25:26;48.88;;;21.58;;
40198;SDS011;25906;43.536;26.068;2023-03-26T18:31:06;58.20;;;28.15;;
40198;SDS011;25906;43.536;26.068;2023-03-26T18:33:55;28.05;;;13.75;;
40198;SDS011;25906;43.536;26.068;2023-03-26T18:36:58;17.27;;;8.98;;
40198;SDS011;25906;43.536;26.068;2023-03-26T18:43:05;16.33;;;8.55;;
40198;SDS011;25906;43.536;26.068;2023-03-26T18:45:59;18.63;;;8.95;;
40198;SDS011;25906;43.536;26.068;2023-03-26T18:48:45;12.68;;;6.60;;
40198;SDS011;25906;43.536;26.068;2023-03-26T18:51:31;16.83;;;6.88;;
40198;SDS011;25906;43.536;26.068;2023-03-26T18:54:17;15.32;;;7.68;;
40198;SDS011;25906;43.536;26.068;2023-03-26T18:57:08;11.63;;;5.22;;
40198;SDS011;25906;43.536;26.068;2023-03-26T18:59:56;9.35;;;4.55;;
40198;SDS011;25906;43.536;26.068;2023-03-26T19:03:02;8.85;;;4.95;;
40198;SDS011;25906;43.536;26.068;2023-03-26T19:05:51;14.02;;;6.43;;
40198;SDS011;25906;43.536;26.068;2023-03-26T19:08:39;12.38;;;6.07;;
40198;SDS011;25906;43.536;26.068;2023-03-26T19:11:26;7.90;;;4.38;;
40198;SDS011;25906;43.536;26.068;2023-03-26T19:14:14;10.88;;;6.13;;
40198;SDS011;25906;43.536;26.068;2023-03-26T19:17:02;7.95;;;5.28;;
40198;SDS011;25906;43.536;26.068;2023-03-26T19:19:50;9.82;;;4.45;;
40198;SDS011;25906;43.536;26.068;2023-03-26T19:25:28;6.18;;;3.45;;
40198;SDS011;25906;43.536;26.068;2023-03-26T19:28:19;5.18;;;3.28;;
40198;SDS011;25906;43.536;26.068;2023-03-26T19:31:08;9.35;;;2.50;;
40198;SDS011;25906;43.536;26.068;2023-03-26T19:36:56;2.92;;;1.50;;
40198;SDS011;25906;43.536;26.068;2023-03-26T19:39:53;2.72;;;1.40;;
40198;SDS011;25906;43.536;26.068;2023-03-26T19:42:39;3.00;;;1.27;;
40198;SDS011;25906;43.536;26.068;2023-03-26T19:45:27;2.67;;;1.63;;
40198;SDS011;25906;43.536;26.068;2023-03-26T19:48:16;3.53;;;1.48;;
40198;SDS011;25906;43.536;26.068;2023-03-26T19:51:04;2.50;;;1.58;;
40198;SDS011;25906;43.536;26.068;2023-03-26T19:53:51;1.90;;;1.38;;
40198;SDS011;25906;43.536;26.068;2023-03-26T19:56:38;5.90;;;1.60;;
40198;SDS011;25906;43.536;26.068;2023-03-26T19:59:23;3.78;;;2.20;;
40198;SDS011;25906;43.536;26.068;2023-03-26T20:02:10;4.07;;;1.83;;
40198;SDS011;25906;43.536;26.068;2023-03-26T20:04:56;3.40;;;1.45;;
40198;SDS011;25906;43.536;26.068;2023-03-26T20:07:41;3.95;;;1.50;;
40198;SDS011;25906;43.536;26.068;2023-03-26T20:10:28;2.88;;;1.27;;
40198;SDS011;25906;43.536;26.068;2023-03-26T20:13:14;6.82;;;4.25;;
40198;SDS011;25906;43.536;26.068;2023-03-26T20:16:06;5.43;;;2.28;;
40198;SDS011;25906;43.536;26.068;2023-03-26T20:18:56;1.85;;;1.10;;
40198;SDS011;25906;43.536;26.068;2023-03-26T20:21:46;4.93;;;1.20;;
40198;SDS011;25906;43.536;26.068;2023-03-26T20:24:31;1.90;;;1.10;;
40198;SDS011;25906;43.536;26.068;2023-03-26T20:27:17;1.67;;;1.20;;
40198;SDS011;25906;43.536;26.068;2023-03-26T20:30:03;3.30;;;1.58;;
40198;SDS011;25906;43.536;26.068;2023-03-26T20:35:34;4.15;;;1.10;;
40198;SDS011;25906;43.536;26.068;2023-03-26T20:38:22;1.42;;;1.00;;
40198;SDS011;25906;43.536;26.068;2023-03-26T20:41:14;2.30;;;1.30;;
40198;SDS011;25906;43.536;26.068;2023-03-26T20:44:02;1.63;;;1.05;;
40198;SDS011;25906;43.536;26.068;2023-03-26T20:46:48;1.67;;;1.13;;
40198;SDS011;25906;43.536;26.068;2023-03-26T20:49:34;1.85;;;1.00;;
40198;SDS011;25906;43.536;26.068;2023-03-26T20:52:20;1.08;;;1.00;;
40198;SDS011;25906;43.536;26.068;2023-03-26T20:55:08;1.48;;;1.02;;
40198;SDS011;25906;43.536;26.068;2023-03-26T20:57:57;2.72;;;1.08;;
40198;SDS011;25906;43.536;26.068;2023-03-26T21:00:43;1.27;;;1.00;;
40198;SDS011;25906;43.536;26.068;2023-03-26T21:03:29;4.35;;;1.60;;
40198;SDS011;25906;43.536;26.068;2023-03-26T21:06:15;2.22;;;1.50;;
40198;SDS011;25906;43.536;26.068;2023-03-26T21:14:39;2.75;;;1.20;;
40198;SDS011;25906;43.536;26.068;2023-03-26T21:17:28;2.35;;;1.02;;
40198;SDS011;25906;43.536;26.068;2023-03-26T21:20:14;3.28;;;1.10;;
40198;SDS011;25906;43.536;26.068;2023-03-26T21:26:10;1.88;;;0.90;;
40198;SDS011;25906;43.536;26.068;2023-03-26T21:29:11;1.30;;;0.85;;
40198;SDS011;25906;43.536;26.068;2023-03-26T21:31:56;1.10;;;0.88;;
40198;SDS011;25906;43.536;26.068;2023-03-26T21:34:42;2.97;;;1.00;;
40198;SDS011;25906;43.536;26.068;2023-03-26T21:37:28;1.05;;;0.82;;
40198;SDS011;25906;43.536;26.068;2023-03-26T21:40:14;1.23;;;0.82;;
40198;SDS011;25906;43.536;26.068;2023-03-26T21:43:02;1.85;;;1.00;;
40198;SDS011;25906;43.536;26.068;2023-03-26T21:45:48;2.00;;;1.10;;
40198;SDS011;25906;43.536;26.068;2023-03-26T21:51:19;1.73;;;1.08;;
40198;SDS011;25906;43.536;26.068;2023-03-26T21:54:38;3.50;;;1.10;;
40198;SDS011;25906;43.536;26.068;2023-03-26T21:57:33;1.95;;;1.30;;
40198;SDS011;25906;43.536;26.068;2023-03-26T22:00:28;4.47;;;1.42;;
40198;SDS011;25906;43.536;26.068;2023-03-26T22:09:55;1.20;;;0.95;;
40198;SDS011;25906;43.536;26.068;2023-03-26T22:12:41;1.80;;;1.05;;
40198;SDS011;25906;43.536;26.068;2023-03-26T22:15:26;1.00;;;0.80;;
40198;SDS011;25906;43.536;26.068;2023-03-26T22:18:14;1.58;;;0.90;;
40198;SDS011;25906;43.536;26.068;2023-03-26T22:21:00;3.45;;;1.50;;
40198;SDS011;25906;43.536;26.068;2023-03-26T22:23:45;3.25;;;1.70;;
40198;SDS011;25906;43.536;26.068;2023-03-26T22:26:36;4.00;;;2.10;;
40198;SDS011;25906;43.536;26.068;2023-03-26T22:29:22;1.90;;;1.35;;
40198;SDS011;25906;43.536;26.068;2023-03-26T22:32:07;2.63;;;1.27;;
40198;SDS011;25906;43.536;26.068;2023-03-26T22:34:53;2.85;;;1.23;;
40198;SDS011;25906;43.536;26.068;2023-03-26T22:37:39;1.27;;;1.00;;
40198;SDS011;25906;43.536;26.068;2023-03-26T22:40:24;1.63;;;1.10;;
40198;SDS011;25906;43.536;26.068;2023-03-26T22:43:10;4.47;;;1.02;;
40198;SDS011;25906;43.536;26.068;2023-03-26T22:45:55;1.38;;;1.20;;
40198;SDS011;25906;43.536;26.068;2023-03-26T22:48:41;1.38;;;0.80;;
40198;SDS011;25906;43.536;26.068;2023-03-26T22:51:29;2.20;;;0.90;;
40198;SDS011;25906;43.536;26.068;2023-03-26T22:57:01;2.72;;;1.00;;
40198;SDS011;25906;43.536;26.068;2023-03-26T22:59:47;2.05;;;1.30;;
40198;SDS011;25906;43.536;26.068;2023-03-26T23:02:33;1.25;;;1.00;;
40198;SDS011;25906;43.536;26.068;2023-03-26T23:05:18;1.83;;;0.80;;
40198;SDS011;25906;43.536;26.068;2023-03-26T23:08:04;1.67;;;1.08;;
40198;SDS011;25906;43.536;26.068;2023-03-26T23:10:51;0.90;;;0.90;;
40198;SDS011;25906;43.536;26.068;2023-03-26T23:13:37;2.95;;;0.95;;
40198;SDS011;25906;43.536;26.068;2023-03-26T23:16:22;2.72;;;0.80;;
40198;SDS011;25906;43.536;26.068;2023-03-26T23:19:08;0.70;;;0.70;;
40198;SDS011;25906;43.536;26.068;2023-03-26T23:21:53;1.25;;;1.02;;
40198;SDS011;25906;43.536;26.068;2023-03-26T23:24:38;2.53;;;1.00;;
40198;SDS011;25906;43.536;26.068;2023-03-26T23:27:24;0.98;;;0.80;;